sensor_id;sensor_type;location;lat;lon;timestamp;pressure;altitude;pressure_sealevel;temperature;humidity
64602;BME280;68371;42.630;23.192;2023-09-08T00:02:23;92847.09;;;18.37;77.39
64602;BME280;68371;42.630;23.192;2023-09-08T00:04:49;92857.41;;;18.42;77.48
64602;BME280;68371;42.630;23.192;2023-09-08T00:07:16;92848.69;;;18.45;75.91
64602;BME280;68371;42.630;23.192;2023-09-08T00:09:43;92851.72;;;18.44;71.35
64602;BME280;68371;42.630;23.192;2023-09-08T00:12:10;92835.69;;;18.33;71.09
64602;BME280;68371;42.630;23.192;2023-09-08T00:14:36;92846.69;;;18.28;69.94
64602;BME280;68371;42.630;23.192;2023-09-08T00:17:05;92841.41;;;18.38;68.54
64602;BME280;68371;42.630;23.192;2023-09-08T00:19:32;92841.06;;;18.44;68.77
64602;BME280;68371;42.630;23.192;2023-09-08T00:21:59;92842.22;;;18.50;68.28
64602;BME280;68371;42.630;23.192;2023-09-08T00:24:27;92838.84;;;18.60;66.77
64602;BME280;68371;42.630;23.192;2023-09-08T00:26:53;92839.19;;;18.55;65.70
64602;BME280;68371;42.630;23.192;2023-09-08T00:29:20;92839.91;;;18.37;64.85
64602;BME280;68371;42.630;23.192;2023-09-08T00:31:47;92829.66;;;18.47;65.63
64602;BME280;68371;42.630;23.192;2023-09-08T00:34:15;92824.69;;;18.38;65.75
64602;BME280;68371;42.630;23.192;2023-09-08T00:36:41;92831.56;;;18.39;64.96
64602;BME280;68371;42.630;23.192;2023-09-08T00:39:08;92828.50;;;18.40;65.94
64602;BME280;68371;42.630;23.192;2023-09-08T00:41:35;92830.00;;;18.38;66.47
64602;BME280;68371;42.630;23.192;2023-09-08T00:44:02;92825.13;;;18.47;66.09
64602;BME280;68371;42.630;23.192;2023-09-08T00:46:30;92829.34;;;18.55;65.98
64602;BME280;68371;42.630;23.192;2023-09-08T00:48:56;92835.44;;;18.59;66.06
64602;BME280;68371;42.630;23.192;2023-09-08T00:51:24;92823.28;;;18.62;66.39
64602;BME280;68371;42.630;23.192;2023-09-08T00:53:52;92826.25;;;18.46;66.55
64602;BME280;68371;42.630;23.192;2023-09-08T00:56:20;92830.44;;;18.47;67.50
64602;BME280;68371;42.630;23.192;2023-09-08T00:58:47;92823.19;;;18.44;66.52
64602;BME280;68371;42.630;23.192;2023-09-08T01:01:13;92826.63;;;18.45;66.38
64602;BME280;68371;42.630;23.192;2023-09-08T01:03:40;92832.25;;;18.29;67.31
64602;BME280;68371;42.630;23.192;2023-09-08T01:06:07;92832.31;;;18.39;67.25
64602;BME280;68371;42.630;23.192;2023-09-08T01:08:36;92832.66;;;18.34;67.54
64602;BME280;68371;42.630;23.192;2023-09-08T01:11:03;92829.97;;;18.31;68.00
64602;BME280;68371;42.630;23.192;2023-09-08T01:13:30;92833.81;;;18.33;68.34
64602;BME280;68371;42.630;23.192;2023-09-08T01:15:56;92825.78;;;18.26;67.41
64602;BME280;68371;42.630;23.192;2023-09-08T01:18:23;92828.81;;;18.28;67.92
64602;BME280;68371;42.630;23.192;2023-09-08T01:21:12;92824.28;;;18.25;68.90
64602;BME280;68371;42.630;23.192;2023-09-08T01:23:55;92826.94;;;18.32;69.85
64602;BME280;68371;42.630;23.192;2023-09-08T01:26:27;92816.28;;;18.25;69.41
64602;BME280;68371;42.630;23.192;2023-09-08T01:28:56;92813.94;;;18.13;68.86
64602;BME280;68371;42.630;23.192;2023-09-08T01:31:23;92817.03;;;18.22;68.89
64602;BME280;68371;42.630;23.192;2023-09-08T01:33:50;92813.97;;;18.20;69.60
64602;BME280;68371;42.630;23.192;2023-09-08T01:36:17;92813.22;;;18.19;69.88
64602;BME280;68371;42.630;23.192;2023-09-08T01:38:44;92810.19;;;18.21;69.14
64602;BME280;68371;42.630;23.192;2023-09-08T01:41:11;92804.81;;;18.14;69.48
64602;BME280;68371;42.630;23.192;2023-09-08T01:43:39;92802.19;;;18.17;69.53
64602;BME280;68371;42.630;23.192;2023-09-08T01:46:06;92807.91;;;18.19;69.53
64602;BME280;68371;42.630;23.192;2023-09-08T01:48:33;92801.78;;;18.12;69.75
64602;BME280;68371;42.630;23.192;2023-09-08T01:50:59;92807.47;;;18.10;70.51
64602;BME280;68371;42.630;23.192;2023-09-08T01:53:26;92811.63;;;18.08;70.52
64602;BME280;68371;42.630;23.192;2023-09-08T01:55:53;92807.81;;;18.05;70.48
64602;BME280;68371;42.630;23.192;2023-09-08T01:58:19;92805.13;;;17.94;71.80
64602;BME280;68371;42.630;23.192;2023-09-08T02:00:49;92790.66;;;17.92;72.43
64602;BME280;68371;42.630;23.192;2023-09-08T02:03:16;92798.31;;;18.00;72.49
64602;BME280;68371;42.630;23.192;2023-09-08T02:05:44;92796.38;;;17.97;72.24
64602;BME280;68371;42.630;23.192;2023-09-08T02:08:12;92806.66;;;17.99;72.33
64602;BME280;68371;42.630;23.192;2023-09-08T02:10:40;92803.91;;;17.85;72.93
64602;BME280;68371;42.630;23.192;2023-09-08T02:13:07;92800.88;;;17.86;73.53
64602;BME280;68371;42.630;23.192;2023-09-08T02:15:35;92805.69;;;17.73;74.37
64602;BME280;68371;42.630;23.192;2023-09-08T02:18:03;92800.34;;;17.70;74.76
64602;BME280;68371;42.630;23.192;2023-09-08T02:20:30;92800.00;;;17.71;74.80
64602;BME280;68371;42.630;23.192;2023-09-08T02:22:58;92802.50;;;17.50;76.04
64602;BME280;68371;42.630;23.192;2023-09-08T02:25:24;92794.50;;;17.46;76.40
64602;BME280;68371;42.630;23.192;2023-09-08T02:27:51;92788.47;;;17.53;76.63
64602;BME280;68371;42.630;23.192;2023-09-08T02:30:18;92796.78;;;17.48;76.90
64602;BME280;68371;42.630;23.192;2023-09-08T02:32:45;92785.72;;;17.38;77.50
64602;BME280;68371;42.630;23.192;2023-09-08T02:35:13;92795.88;;;17.29;78.22
64602;BME280;68371;42.630;23.192;2023-09-08T02:37:40;92791.75;;;17.32;78.50
64602;BME280;68371;42.630;23.192;2023-09-08T02:40:07;92780.78;;;17.37;78.32
64602;BME280;68371;42.630;23.192;2023-09-08T02:42:34;92785.63;;;17.24;79.17
64602;BME280;68371;42.630;23.192;2023-09-08T02:45:00;92777.97;;;17.19;80.05
64602;BME280;68371;42.630;23.192;2023-09-08T02:47:27;92777.56;;;17.17;80.22
64602;BME280;68371;42.630;23.192;2023-09-08T02:49:54;92779.41;;;17.06;80.72
64602;BME280;68371;42.630;23.192;2023-09-08T02:52:22;92783.53;;;17.03;81.53
64602;BME280;68371;42.630;23.192;2023-09-08T02:54:48;92782.72;;;16.99;81.71
64602;BME280;68371;42.630;23.192;2023-09-08T02:57:15;92772.50;;;17.01;82.27
64602;BME280;68371;42.630;23.192;2023-09-08T02:59:42;92772.81;;;16.92;82.54
64602;BME280;68371;42.630;23.192;2023-09-08T03:02:09;92782.59;;;16.81;82.78
64602;BME280;68371;42.630;23.192;2023-09-08T03:04:35;92780.16;;;16.69;83.99
64602;BME280;68371;42.630;23.192;2023-09-08T03:07:02;92780.50;;;16.67;84.54
64602;BME280;68371;42.630;23.192;2023-09-08T03:09:31;92788.53;;;16.71;85.68
64602;BME280;68371;42.630;23.192;2023-09-08T03:11:59;92786.47;;;16.57;86.28
64602;BME280;68371;42.630;23.192;2023-09-08T03:14:26;92777.31;;;16.51;87.57
64602;BME280;68371;42.630;23.192;2023-09-08T03:16:53;92778.38;;;16.46;88.56
64602;BME280;68371;42.630;23.192;2023-09-08T03:19:19;92770.38;;;16.39;89.27
64602;BME280;68371;42.630;23.192;2023-09-08T03:21:46;92777.47;;;16.31;90.41
64602;BME280;68371;42.630;23.192;2023-09-08T03:24:13;92773.31;;;16.34;90.99
64602;BME280;68371;42.630;23.192;2023-09-08T03:26:41;92781.97;;;16.27;91.29
64602;BME280;68371;42.630;23.192;2023-09-08T03:29:07;92783.34;;;16.17;91.98
64602;BME280;68371;42.630;23.192;2023-09-08T03:31:34;92772.28;;;16.08;92.95
64602;BME280;68371;42.630;23.192;2023-09-08T03:34:01;92780.88;;;16.01;93.84
64602;BME280;68371;42.630;23.192;2023-09-08T03:36:27;92779.41;;;16.04;94.04
64602;BME280;68371;42.630;23.192;2023-09-08T03:38:56;92790.72;;;16.01;94.12
64602;BME280;68371;42.630;23.192;2023-09-08T03:41:23;92782.38;;;15.99;94.57
64602;BME280;68371;42.630;23.192;2023-09-08T03:43:51;92792.16;;;15.95;94.98
64602;BME280;68371;42.630;23.192;2023-09-08T03:46:18;92791.28;;;15.87;95.77
64602;BME280;68371;42.630;23.192;2023-09-08T03:48:44;92795.97;;;15.97;95.49
64602;BME280;68371;42.630;23.192;2023-09-08T03:51:12;92805.81;;;15.97;95.62
64602;BME280;68371;42.630;23.192;2023-09-08T03:53:38;92802.06;;;15.98;95.56
64602;BME280;68371;42.630;23.192;2023-09-08T03:56:05;92805.13;;;16.03;95.62
64602;BME280;68371;42.630;23.192;2023-09-08T03:58:32;92803.56;;;15.99;95.72
64602;BME280;68371;42.630;23.192;2023-09-08T04:01:00;92805.81;;;15.97;96.14
64602;BME280;68371;42.630;23.192;2023-09-08T04:03:26;92795.22;;;15.97;96.84
64602;BME280;68371;42.630;23.192;2023-09-08T04:05:53;92810.75;;;15.98;96.46
64602;BME280;68371;42.630;23.192;2023-09-08T04:08:20;92802.06;;;15.98;96.35
64602;BME280;68371;42.630;23.192;2023-09-08T04:10:47;92789.16;;;15.96;96.71
64602;BME280;68371;42.630;23.192;2023-09-08T04:13:14;92805.50;;;16.02;96.46
64602;BME280;68371;42.630;23.192;2023-09-08T04:15:41;92812.31;;;16.03;96.19
64602;BME280;68371;42.630;23.192;2023-09-08T04:18:09;92804.03;;;16.05;96.21
64602;BME280;68371;42.630;23.192;2023-09-08T04:20:35;92814.22;;;16.02;96.01
64602;BME280;68371;42.630;23.192;2023-09-08T04:23:02;92822.53;;;16.01;96.88
64602;BME280;68371;42.630;23.192;2023-09-08T04:25:29;92827.06;;;16.00;96.65
64602;BME280;68371;42.630;23.192;2023-09-08T04:27:55;92825.28;;;16.08;96.58
64602;BME280;68371;42.630;23.192;2023-09-08T04:30:22;92817.63;;;16.03;96.38
64602;BME280;68371;42.630;23.192;2023-09-08T04:32:49;92834.00;;;16.09;96.30
64602;BME280;68371;42.630;23.192;2023-09-08T04:35:17;92837.66;;;16.00;97.19
64602;BME280;68371;42.630;23.192;2023-09-08T04:37:44;92836.22;;;16.07;96.75
64602;BME280;68371;42.630;23.192;2023-09-08T04:40:11;92840.50;;;16.15;96.73
64602;BME280;68371;42.630;23.192;2023-09-08T04:42:38;92837.13;;;16.18;96.31
64602;BME280;68371;42.630;23.192;2023-09-08T04:45:05;92846.22;;;16.17;96.26
64602;BME280;68371;42.630;23.192;2023-09-08T04:47:32;92840.09;;;16.13;97.10
64602;BME280;68371;42.630;23.192;2023-09-08T04:49:59;92844.38;;;16.21;96.34
64602;BME280;68371;42.630;23.192;2023-09-08T04:52:27;92846.31;;;16.24;95.99
64602;BME280;68371;42.630;23.192;2023-09-08T04:54:54;92838.78;;;16.26;95.96
64602;BME280;68371;42.630;23.192;2023-09-08T04:57:20;92846.44;;;16.35;95.81
64602;BME280;68371;42.630;23.192;2023-09-08T04:59:47;92840.78;;;16.36;95.52
64602;BME280;68371;42.630;23.192;2023-09-08T05:02:14;92842.72;;;16.39;95.39
64602;BME280;68371;42.630;23.192;2023-09-08T05:04:40;92840.47;;;16.41;95.64
64602;BME280;68371;42.630;23.192;2023-09-08T05:07:07;92833.59;;;16.37;95.34
64602;BME280;68371;42.630;23.192;2023-09-08T05:09:35;92839.34;;;16.42;95.52
64602;BME280;68371;42.630;23.192;2023-09-08T05:12:02;92842.72;;;16.39;95.83
64602;BME280;68371;42.630;23.192;2023-09-08T05:14:29;92840.50;;;16.45;95.52
64602;BME280;68371;42.630;23.192;2023-09-08T05:16:55;92836.47;;;16.55;95.07
64602;BME280;68371;42.630;23.192;2023-09-08T05:19:22;92840.22;;;16.54;94.27
64602;BME280;68371;42.630;23.192;2023-09-08T05:21:50;92834.63;;;16.59;93.46
64602;BME280;68371;42.630;23.192;2023-09-08T05:24:17;92828.84;;;16.53;93.55
64602;BME280;68371;42.630;23.192;2023-09-08T05:26:45;92844.00;;;16.53;92.61
64602;BME280;68371;42.630;23.192;2023-09-08T05:29:12;92841.31;;;16.49;92.99
64602;BME280;68371;42.630;23.192;2023-09-08T05:31:39;92849.72;;;16.55;92.63
64602;BME280;68371;42.630;23.192;2023-09-08T05:34:06;92846.50;;;16.72;91.20
64602;BME280;68371;42.630;23.192;2023-09-08T05:36:32;92845.38;;;16.73;90.66
64602;BME280;68371;42.630;23.192;2023-09-08T05:39:01;92856.00;;;16.73;89.38
64602;BME280;68371;42.630;23.192;2023-09-08T05:41:28;92846.19;;;16.77;87.74
64602;BME280;68371;42.630;23.192;2023-09-08T05:43:56;92852.78;;;16.91;85.44
64602;BME280;68371;42.630;23.192;2023-09-08T05:46:23;92855.06;;;16.92;85.62
64602;BME280;68371;42.630;23.192;2023-09-08T05:48:50;92850.16;;;16.94;85.00
64602;BME280;68371;42.630;23.192;2023-09-08T05:51:16;92854.75;;;16.97;84.16
64602;BME280;68371;42.630;23.192;2023-09-08T05:53:43;92854.06;;;17.04;84.72
64602;BME280;68371;42.630;23.192;2023-09-08T05:56:10;92858.34;;;17.16;83.57
64602;BME280;68371;42.630;23.192;2023-09-08T05:58:37;92865.97;;;17.17;82.38
64602;BME280;68371;42.630;23.192;2023-09-08T06:01:06;92848.59;;;17.27;80.11
64602;BME280;68371;42.630;23.192;2023-09-08T06:03:33;92860.38;;;17.30;78.53
64602;BME280;68371;42.630;23.192;2023-09-08T06:06:00;92858.84;;;17.29;78.15
64602;BME280;68371;42.630;23.192;2023-09-08T06:08:26;92857.81;;;17.40;75.32
64602;BME280;68371;42.630;23.192;2023-09-08T06:10:53;92857.88;;;17.48;75.99
64602;BME280;68371;42.630;23.192;2023-09-08T06:13:20;92853.78;;;17.57;76.24
64602;BME280;68371;42.630;23.192;2023-09-08T06:15:46;92856.50;;;17.65;74.20
64602;BME280;68371;42.630;23.192;2023-09-08T06:18:14;92849.69;;;17.67;73.69
64602;BME280;68371;42.630;23.192;2023-09-08T06:20:45;92850.16;;;17.76;72.27
64602;BME280;68371;42.630;23.192;2023-09-08T06:23:12;92858.13;;;17.80;72.72
64602;BME280;68371;42.630;23.192;2023-09-08T06:25:38;92848.56;;;17.72;72.95
64602;BME280;68371;42.630;23.192;2023-09-08T06:28:05;92856.34;;;17.91;72.37
64602;BME280;68371;42.630;23.192;2023-09-08T06:30:32;92865.09;;;17.95;72.20
64602;BME280;68371;42.630;23.192;2023-09-08T06:32:59;92875.41;;;18.00;70.02
64602;BME280;68371;42.630;23.192;2023-09-08T06:35:29;92875.78;;;18.02;70.08
64602;BME280;68371;42.630;23.192;2023-09-08T06:37:56;92882.31;;;18.16;69.22
64602;BME280;68371;42.630;23.192;2023-09-08T06:40:23;92885.44;;;18.29;68.88
64602;BME280;68371;42.630;23.192;2023-09-08T06:42:50;92887.78;;;18.37;68.14
64602;BME280;68371;42.630;23.192;2023-09-08T06:45:17;92887.00;;;18.33;68.22
64602;BME280;68371;42.630;23.192;2023-09-08T06:47:44;92885.53;;;18.43;69.56
64602;BME280;68371;42.630;23.192;2023-09-08T06:50:10;92891.25;;;18.52;67.17
64602;BME280;68371;42.630;23.192;2023-09-08T06:52:38;92892.41;;;18.55;66.56
64602;BME280;68371;42.630;23.192;2023-09-08T06:55:05;92899.66;;;18.58;66.00
64602;BME280;68371;42.630;23.192;2023-09-08T06:57:34;92894.38;;;18.69;65.08
64602;BME280;68371;42.630;23.192;2023-09-08T07:00:02;92894.41;;;18.76;65.39
64602;BME280;68371;42.630;23.192;2023-09-08T07:02:31;92852.13;;;18.53;65.77
64602;BME280;68371;42.630;23.192;2023-09-08T07:04:58;92889.50;;;18.81;64.38
64602;BME280;68371;42.630;23.192;2023-09-08T07:07:26;92899.81;;;18.87;64.22
64602;BME280;68371;42.630;23.192;2023-09-08T07:09:54;92894.91;;;18.92;64.39
64602;BME280;68371;42.630;23.192;2023-09-08T07:12:21;92902.53;;;19.01;65.90
64602;BME280;68371;42.630;23.192;2023-09-08T07:14:48;92894.59;;;19.19;63.47
64602;BME280;68371;42.630;23.192;2023-09-08T07:17:14;92907.16;;;19.29;62.99
64602;BME280;68371;42.630;23.192;2023-09-08T07:19:41;92904.50;;;19.33;62.54
64602;BME280;68371;42.630;23.192;2023-09-08T07:22:08;92899.59;;;19.38;61.90
64602;BME280;68371;42.630;23.192;2023-09-08T07:24:34;92892.38;;;19.42;61.78
64602;BME280;68371;42.630;23.192;2023-09-08T07:27:03;92894.28;;;19.49;61.76
64602;BME280;68371;42.630;23.192;2023-09-08T07:29:30;92892.75;;;19.55;60.84
64602;BME280;68371;42.630;23.192;2023-09-08T07:31:56;92897.31;;;19.55;61.73
64602;BME280;68371;42.630;23.192;2023-09-08T07:34:24;92894.25;;;19.56;61.68
64602;BME280;68371;42.630;23.192;2023-09-08T07:36:50;92901.13;;;19.61;60.21
64602;BME280;68371;42.630;23.192;2023-09-08T07:39:17;92901.94;;;19.72;61.57
64602;BME280;68371;42.630;23.192;2023-09-08T07:41:44;92901.16;;;19.86;61.19
64602;BME280;68371;42.630;23.192;2023-09-08T07:44:12;92901.16;;;19.97;59.67
64602;BME280;68371;42.630;23.192;2023-09-08T07:46:39;92889.72;;;20.07;58.82
64602;BME280;68371;42.630;23.192;2023-09-08T07:49:06;92906.88;;;20.02;58.25
64602;BME280;68371;42.630;23.192;2023-09-08T07:51:32;92899.25;;;20.05;57.74
64602;BME280;68371;42.630;23.192;2023-09-08T07:53:59;92901.53;;;19.99;57.00
64602;BME280;68371;42.630;23.192;2023-09-08T07:56:29;92901.94;;;19.97;56.62
64602;BME280;68371;42.630;23.192;2023-09-08T07:58:56;92903.06;;;20.00;58.47
64602;BME280;68371;42.630;23.192;2023-09-08T08:01:24;92899.25;;;20.08;59.38
64602;BME280;68371;42.630;23.192;2023-09-08T08:03:51;92903.47;;;20.06;57.52
64602;BME280;68371;42.630;23.192;2023-09-08T08:06:17;92900.03;;;19.98;58.12
64602;BME280;68371;42.630;23.192;2023-09-08T08:08:44;92894.69;;;19.98;56.55
64602;BME280;68371;42.630;23.192;2023-09-08T08:11:12;92898.50;;;20.00;58.89
64602;BME280;68371;42.630;23.192;2023-09-08T08:13:39;92905.72;;;19.93;57.31
64602;BME280;68371;42.630;23.192;2023-09-08T08:16:06;92895.44;;;19.98;58.55
64602;BME280;68371;42.630;23.192;2023-09-08T08:18:37;92892.41;;;20.04;59.28
64602;BME280;68371;42.630;23.192;2023-09-08T08:21:26;92884.03;;;20.19;60.29
64602;BME280;68371;42.630;23.192;2023-09-08T08:23:53;92886.66;;;20.27;59.76
64602;BME280;68371;42.630;23.192;2023-09-08T08:26:20;92888.56;;;20.26;58.41
64602;BME280;68371;42.630;23.192;2023-09-08T08:28:46;92885.88;;;20.33;57.20
64602;BME280;68371;42.630;23.192;2023-09-08T08:31:13;92887.44;;;20.24;57.44
64602;BME280;68371;42.630;23.192;2023-09-08T08:33:41;92887.78;;;20.36;57.59
64602;BME280;68371;42.630;23.192;2023-09-08T08:36:08;92895.03;;;20.36;56.60
64602;BME280;68371;42.630;23.192;2023-09-08T08:38:35;92897.31;;;20.45;56.40
64602;BME280;68371;42.630;23.192;2023-09-08T08:41:03;92891.59;;;20.42;54.58
64602;BME280;68371;42.630;23.192;2023-09-08T08:43:31;92888.16;;;20.42;55.12
64602;BME280;68371;42.630;23.192;2023-09-08T08:45:59;92898.44;;;20.51;56.23
64602;BME280;68371;42.630;23.192;2023-09-08T08:48:29;92891.19;;;20.51;53.72
64602;BME280;68371;42.630;23.192;2023-09-08T08:50:58;92884.31;;;20.61;56.75
64602;BME280;68371;42.630;23.192;2023-09-08T08:53:25;92883.94;;;20.66;55.24
64602;BME280;68371;42.630;23.192;2023-09-08T08:55:55;92875.88;;;20.73;51.50
64602;BME280;68371;42.630;23.192;2023-09-08T08:58:23;92884.66;;;20.77;54.65
64602;BME280;68371;42.630;23.192;2023-09-08T09:00:53;92874.75;;;20.74;54.06
64602;BME280;68371;42.630;23.192;2023-09-08T09:03:23;92875.09;;;20.87;53.69
64602;BME280;68371;42.630;23.192;2023-09-08T09:05:51;92879.97;;;20.99;53.98
64602;BME280;68371;42.630;23.192;2023-09-08T09:08:20;92881.84;;;21.10;54.48
64602;BME280;68371;42.630;23.192;2023-09-08T09:10:49;92884.56;;;21.03;50.37
64602;BME280;68371;42.630;23.192;2023-09-08T09:13:15;92879.19;;;21.06;51.90
64602;BME280;68371;42.630;23.192;2023-09-08T09:15:43;92876.88;;;21.12;51.72
64602;BME280;68371;42.630;23.192;2023-09-08T09:18:10;92875.66;;;21.27;51.29
64602;BME280;68371;42.630;23.192;2023-09-08T09:20:37;92873.28;;;21.40;51.02
64602;BME280;68371;42.630;23.192;2023-09-08T09:23:06;92872.56;;;21.29;49.81
64602;BME280;68371;42.630;23.192;2023-09-08T09:25:35;92863.41;;;21.30;50.87
64602;BME280;68371;42.630;23.192;2023-09-08T09:28:03;92861.09;;;21.35;49.57
64602;BME280;68371;42.630;23.192;2023-09-08T09:30:46;92874.03;;;21.48;50.36
64602;BME280;68371;42.630;23.192;2023-09-08T09:33:14;92862.88;;;21.60;50.55
64602;BME280;68371;42.630;23.192;2023-09-08T09:35:42;92867.31;;;21.77;49.82
64602;BME280;68371;42.630;23.192;2023-09-08T09:38:09;92868.09;;;21.78;47.58
64602;BME280;68371;42.630;23.192;2023-09-08T09:40:37;92864.59;;;21.81;50.04
64602;BME280;68371;42.630;23.192;2023-09-08T09:43:06;92863.00;;;21.91;49.05
64602;BME280;68371;42.630;23.192;2023-09-08T09:45:33;92865.28;;;21.92;48.96
64602;BME280;68371;42.630;23.192;2023-09-08T09:48:02;92867.22;;;21.92;48.98
64602;BME280;68371;42.630;23.192;2023-09-08T09:50:30;92858.72;;;22.00;49.17
64602;BME280;68371;42.630;23.192;2023-09-08T09:52:58;92857.91;;;22.04;49.21
64602;BME280;68371;42.630;23.192;2023-09-08T09:55:26;92855.94;;;22.11;50.58
64602;BME280;68371;42.630;23.192;2023-09-08T09:57:56;92844.47;;;22.14;50.37
64602;BME280;68371;42.630;23.192;2023-09-08T10:00:24;92851.06;;;22.44;49.35
64602;BME280;68371;42.630;23.192;2023-09-08T10:02:52;92849.31;;;22.65;48.97
64602;BME280;68371;42.630;23.192;2023-09-08T10:05:19;92835.81;;;22.75;48.19
64602;BME280;68371;42.630;23.192;2023-09-08T10:07:47;92847.91;;;22.87;49.01
64602;BME280;68371;42.630;23.192;2023-09-08T10:10:14;92841.41;;;22.85;47.34
64602;BME280;68371;42.630;23.192;2023-09-08T10:12:43;92844.41;;;22.90;47.28
64602;BME280;68371;42.630;23.192;2023-09-08T10:15:12;92837.19;;;22.87;48.18
64602;BME280;68371;42.630;23.192;2023-09-08T10:17:41;92830.97;;;22.94;47.14
64602;BME280;68371;42.630;23.192;2023-09-08T10:20:09;92835.00;;;22.78;48.52
64602;BME280;68371;42.630;23.192;2023-09-08T10:22:41;92833.97;;;22.99;48.60
64602;BME280;68371;42.630;23.192;2023-09-08T10:25:09;92839.16;;;23.41;49.42
64602;BME280;68371;42.630;23.192;2023-09-08T10:27:39;92825.31;;;23.46;47.51
64602;BME280;68371;42.630;23.192;2023-09-08T10:30:07;92809.75;;;23.61;46.31
64602;BME280;68371;42.630;23.192;2023-09-08T10:32:37;92811.00;;;23.80;47.34
64602;BME280;68371;42.630;23.192;2023-09-08T10:35:07;92814.03;;;23.82;45.65
64602;BME280;68371;42.630;23.192;2023-09-08T10:37:35;92822.09;;;23.82;46.24
64602;BME280;68371;42.630;23.192;2023-09-08T10:40:22;92810.16;;;23.87;44.90
64602;BME280;68371;42.630;23.192;2023-09-08T10:43:05;92807.81;;;23.89;46.19
64602;BME280;68371;42.630;23.192;2023-09-08T10:45:32;92817.72;;;24.15;47.02
64602;BME280;68371;42.630;23.192;2023-09-08T10:48:01;92792.47;;;24.13;45.03
64602;BME280;68371;42.630;23.192;2023-09-08T10:50:32;92808.50;;;24.36;44.39
64602;BME280;68371;42.630;23.192;2023-09-08T10:53:15;92798.72;;;24.26;44.11
64602;BME280;68371;42.630;23.192;2023-09-08T10:55:43;92790.19;;;24.31;42.97
64602;BME280;68371;42.630;23.192;2023-09-08T10:58:20;92795.91;;;24.33;45.25
64602;BME280;68371;42.630;23.192;2023-09-08T11:00:48;92788.31;;;24.52;43.72
64602;BME280;68371;42.630;23.192;2023-09-08T11:03:27;92777.53;;;24.72;44.89
64602;BME280;68371;42.630;23.192;2023-09-08T11:05:55;92798.13;;;24.78;46.40
64602;BME280;68371;42.630;23.192;2023-09-08T11:08:22;92795.50;;;24.75;43.88
64602;BME280;68371;42.630;23.192;2023-09-08T11:10:49;92788.84;;;24.63;45.33
64602;BME280;68371;42.630;23.192;2023-09-08T11:13:16;92777.53;;;24.72;44.12
64602;BME280;68371;42.630;23.192;2023-09-08T11:15:43;92780.34;;;24.85;44.33
64602;BME280;68371;42.630;23.192;2023-09-08T11:18:10;92776.66;;;24.95;44.41
64602;BME280;68371;42.630;23.192;2023-09-08T11:20:39;92787.50;;;24.91;45.34
64602;BME280;68371;42.630;23.192;2023-09-08T11:23:06;92774.91;;;24.88;42.83
64602;BME280;68371;42.630;23.192;2023-09-08T11:25:33;92783.16;;;24.77;44.54
64602;BME280;68371;42.630;23.192;2023-09-08T11:28:01;92781.78;;;24.49;44.42
64602;BME280;68371;42.630;23.192;2023-09-08T11:30:28;92782.94;;;24.52;45.51
64602;BME280;68371;42.630;23.192;2023-09-08T11:32:54;92780.59;;;24.54;45.05
64602;BME280;68371;42.630;23.192;2023-09-08T11:35:27;92782.13;;;24.91;44.61
64602;BME280;68371;42.630;23.192;2023-09-08T11:38:00;92782.97;;;24.88;45.86
64602;BME280;68371;42.630;23.192;2023-09-08T11:40:30;92777.03;;;25.13;45.35
64602;BME280;68371;42.630;23.192;2023-09-08T11:42:58;92782.78;;;25.32;43.86
64602;BME280;68371;42.630;23.192;2023-09-08T11:45:25;92779.88;;;25.43;42.71
64602;BME280;68371;42.630;23.192;2023-09-08T11:47:53;92778.19;;;25.49;43.03
64602;BME280;68371;42.630;23.192;2023-09-08T11:50:21;92777.59;;;25.57;43.08
64602;BME280;68371;42.630;23.192;2023-09-08T11:52:49;92772.47;;;25.79;42.35
64602;BME280;68371;42.630;23.192;2023-09-08T11:55:19;92780.25;;;26.07;44.50
64602;BME280;68371;42.630;23.192;2023-09-08T11:57:49;92767.75;;;26.00;42.44
64602;BME280;68371;42.630;23.192;2023-09-08T12:00:18;92770.84;;;25.82;41.95
64602;BME280;68371;42.630;23.192;2023-09-08T12:02:46;92776.66;;;25.97;43.00
64602;BME280;68371;42.630;23.192;2023-09-08T12:05:20;92771.47;;;26.19;42.91
64602;BME280;68371;42.630;23.192;2023-09-08T12:07:47;92774.03;;;26.10;43.33
64602;BME280;68371;42.630;23.192;2023-09-08T12:10:14;92778.34;;;26.36;41.33
64602;BME280;68371;42.630;23.192;2023-09-08T12:12:46;92770.94;;;26.53;42.18
64602;BME280;68371;42.630;23.192;2023-09-08T12:15:31;92773.16;;;26.58;40.95
64602;BME280;68371;42.630;23.192;2023-09-08T12:18:02;92774.50;;;26.50;40.92
64602;BME280;68371;42.630;23.192;2023-09-08T12:20:29;92762.84;;;26.53;40.33
64602;BME280;68371;42.630;23.192;2023-09-08T12:22:59;92774.88;;;26.65;40.89
64602;BME280;68371;42.630;23.192;2023-09-08T12:25:27;92767.69;;;27.01;40.93
64602;BME280;68371;42.630;23.192;2023-09-08T12:27:58;92757.34;;;27.12;39.19
64602;BME280;68371;42.630;23.192;2023-09-08T12:30:24;92745.59;;;27.18;40.19
64602;BME280;68371;42.630;23.192;2023-09-08T12:32:56;92760.25;;;27.43;38.89
64602;BME280;68371;42.630;23.192;2023-09-08T12:35:23;92750.25;;;27.31;38.92
64602;BME280;68371;42.630;23.192;2023-09-08T12:37:57;92751.97;;;27.25;39.56
64602;BME280;68371;42.630;23.192;2023-09-08T12:40:25;92749.91;;;27.16;39.65
64602;BME280;68371;42.630;23.192;2023-09-08T12:42:53;92751.84;;;27.15;39.86
64602;BME280;68371;42.630;23.192;2023-09-08T12:45:22;92746.78;;;27.17;39.79
64602;BME280;68371;42.630;23.192;2023-09-08T12:47:49;92748.66;;;27.33;38.02
64602;BME280;68371;42.630;23.192;2023-09-08T12:50:16;92739.00;;;26.94;37.50
64602;BME280;68371;42.630;23.192;2023-09-08T12:52:43;92745.59;;;27.06;38.67
64602;BME280;68371;42.630;23.192;2023-09-08T12:55:12;92748.50;;;27.37;39.37